Temp: 3.7°C   Baro: 1036.4mb
  Wind: 0.9mph   Dir: W (273°)
  Rain: 0.0mm (0.0mm/hr)
  Solar: 0W/m2  Hum: 84%

Historic data

Bath Spa Weather Station Historical Data
Daily Summary for December 25, 2019 Units:  Both    English   Metric
Daily Weekly Monthly Yearly Custom
  High: Low: Average:
Temperature: 51.2 °F /  10.7 °C 35.8 °F /  2.1 °C 41.2 °F /  5.1 °C
Dew Point: 43 °F /  6.1 °C 34.1 °F /  1.2 °C 37.9 °F /  3.3 °C
Humidity: 95% 70.8% 88%
Wind Speed: 6mph /  9.7km/h - 1.6mph /  2.6km/h
Wind Gust: 11mph /  17.7km/h - -
Wind- - South
Pressure: 30.28 in /  1025.3 hPa 30.09 in /  1018.8 hPa -
Precipitation: 0.01 in /  0.25 mm    
Historical Graphs
 
 
Tabular Data for December 25, 2019
Time Temperature Dew Point Pressure Wind Wind Speed Wind Gust Humidity Rainfall Rate (Hourly) solar
00:09 45.3 °F /  7.4 °C 40.6 °F /  4.8 °C 30.09in /  1018.8hPa West 5.1mph /  8.2km/h 9mph /  14.5km/h 83.2% 0.00in /  0mm 0 W/m2
00:14 45.3 °F /  7.4 °C 40.8 °F /  4.9 °C 30.10in /  1019.2hPa NW 4mph /  6.4km/h 7mph /  11.3km/h 84% 0.00in /  0mm 0 W/m2
00:19 45.3 °F /  7.4 °C 40.8 °F /  4.9 °C 30.10in /  1019.2hPa WNW 3.7mph /  6km/h 6mph /  9.7km/h 84% 0.00in /  0mm 0 W/m2
00:24 45.2 °F /  7.3 °C 40.7 °F /  4.8 °C 30.09in /  1018.8hPa NW 4.3mph /  6.9km/h 8mph /  12.9km/h 84% 0.00in /  0mm 0 W/m2
00:29 45.1 °F /  7.3 °C 40.8 °F /  4.9 °C 30.10in /  1019.2hPa NW 3.2mph /  5.1km/h 8mph /  12.9km/h 85% 0.00in /  0mm 0 W/m2
00:34 45 °F /  7.2 °C 40.6 °F /  4.8 °C 30.10in /  1019.2hPa WNW 3.8mph /  6.1km/h 8mph /  12.9km/h 85% 0.00in /  0mm 0 W/m2
00:39 44.8 °F /  7.1 °C 40.7 °F /  4.8 °C 30.09in /  1018.8hPa WNW 4mph /  6.4km/h 8mph /  12.9km/h 85.6% 0.00in /  0mm 0 W/m2
00:44 44.7 °F /  7.1 °C 40.7 °F /  4.8 °C 30.09in /  1018.8hPa WNW 3.2mph /  5.1km/h 6mph /  9.7km/h 86% 0.00in /  0mm 0 W/m2
00:49 44.4 °F /  6.9 °C 40.5 °F /  4.7 °C 30.09in /  1018.8hPa NW 3.6mph /  5.8km/h 7mph /  11.3km/h 86% 0.00in /  0mm 0 W/m2
00:54 44.2 °F /  6.8 °C 40.3 °F /  4.6 °C 30.10in /  1019.2hPa NNW 3.5mph /  5.6km/h 5mph /  8km/h 86% 0.00in /  0mm 0 W/m2
00:59 44.1 °F /  6.7 °C 40.1 °F /  4.5 °C 30.10in /  1019.2hPa NW 4.2mph /  6.8km/h 7mph /  11.3km/h 86% 0.00in /  0mm 0 W/m2
01:04 44 °F /  6.7 °C 40.3 °F /  4.6 °C 30.10in /  1019.2hPa WNW 1.8mph /  2.9km/h 6mph /  9.7km/h 86.8% 0.00in /  0mm 0 W/m2
01:09 43.8 °F /  6.6 °C 40.2 °F /  4.6 °C 30.10in /  1019.2hPa West 2.3mph /  3.7km/h 4mph /  6.4km/h 87% 0.00in /  0mm 0 W/m2
01:13 43.5 °F /  6.4 °C 39.9 °F /  4.4 °C 30.10in /  1019.2hPa WNW 2.5mph /  4km/h 5mph /  8km/h 87% 0.00in /  0mm 0 W/m2
01:19 43.3 °F /  6.3 °C 39.7 °F /  4.3 °C 30.10in /  1019.2hPa WNW 1.7mph /  2.7km/h 3mph /  4.8km/h 87% 0.00in /  0mm 0 W/m2
01:24 43.1 °F /  6.2 °C 39.5 °F /  4.2 °C 30.10in /  1019.2hPa WNW 2.7mph /  4.3km/h 4mph /  6.4km/h 87% 0.00in /  0mm 0 W/m2
01:29 42.9 °F /  6.1 °C 39.6 °F /  4.2 °C 30.11in /  1019.5hPa West 2.5mph /  4km/h 6mph /  9.7km/h 88% 0.00in /  0mm 0 W/m2
01:34 42.6 °F /  5.9 °C 39.4 °F /  4.1 °C 30.11in /  1019.5hPa WNW 2.9mph /  4.7km/h 6mph /  9.7km/h 88% 0.00in /  0mm 0 W/m2
01:39 42.5 °F /  5.8 °C 39.3 °F /  4.1 °C 30.11in /  1019.5hPa NW 3mph /  4.8km/h 5mph /  8km/h 88% 0.00in /  0mm 0 W/m2
01:44 42.4 °F /  5.8 °C 39.4 °F /  4.1 °C 30.11in /  1019.5hPa NW 1.1mph /  1.8km/h 5mph /  8km/h 88.8% 0.00in /  0mm 0 W/m2
01:49 42.4 °F /  5.8 °C 39.4 °F /  4.1 °C 30.12in /  1019.9hPa NW 2.2mph /  3.5km/h 4mph /  6.4km/h 89% 0.00in /  0mm 0 W/m2
01:54 42.4 °F /  5.8 °C 39.4 °F /  4.1 °C 30.12in /  1019.9hPa NW 1.7mph /  2.7km/h 4mph /  6.4km/h 89% 0.00in /  0mm 0 W/m2
01:59 42.4 °F /  5.8 °C 39.4 °F /  4.1 °C 30.12in /  1019.9hPa NW 0.2mph /  0.3km/h 1mph /  1.6km/h 89% 0.00in /  0mm 0 W/m2
02:04 42.3 °F /  5.7 °C 39.2 °F /  4 °C 30.13in /  1020.2hPa NW 0.5mph /  0.8km/h 1mph /  1.6km/h 89% 0.00in /  0mm 0 W/m2
02:09 42 °F /  5.6 °C 38.9 °F /  3.8 °C 30.13in /  1020.2hPa NW 0.6mph /  1km/h 2mph /  3.2km/h 89% 0.00in /  0mm 0 W/m2
02:14 41.6 °F /  5.3 °C 38.6 °F /  3.7 °C 30.13in /  1020.2hPa NW 0.5mph /  0.8km/h 2mph /  3.2km/h 89% 0.00in /  0mm 0 W/m2
02:19 41 °F /  5 °C 37.9 °F /  3.3 °C 30.13in /  1020.2hPa NW 1.8mph /  2.9km/h 3mph /  4.8km/h 89% 0.00in /  0mm 0 W/m2
02:24 40.6 °F /  4.8 °C 37.6 °F /  3.1 °C 30.13in /  1020.2hPa NW 2.2mph /  3.5km/h 3mph /  4.8km/h 89% 0.00in /  0mm 0 W/m2
02:29 40.7 °F /  4.8 °C 37.8 °F /  3.2 °C 30.13in /  1020.2hPa NW 2.4mph /  3.9km/h 4mph /  6.4km/h 89.2% 0.00in /  0mm 0 W/m2
02:34 40.8 °F /  4.9 °C 38.1 °F /  3.4 °C 30.13in /  1020.2hPa WNW 2.7mph /  4.3km/h 4mph /  6.4km/h 90% 0.00in /  0mm 0 W/m2
02:39 40.8 °F /  4.9 °C 38.1 °F /  3.4 °C 30.14in /  1020.5hPa WNW 2.4mph /  3.9km/h 4mph /  6.4km/h 90% 0.00in /  0mm 0 W/m2
02:44 40.9 °F /  4.9 °C 38.2 °F /  3.4 °C 30.14in /  1020.5hPa West 2.2mph /  3.5km/h 4mph /  6.4km/h 90% 0.00in /  0mm 0 W/m2
02:49 40.9 °F /  4.9 °C 38.2 °F /  3.4 °C 30.14in /  1020.5hPa West 0.5mph /  0.8km/h 3mph /  4.8km/h 90% 0.00in /  0mm 0 W/m2
02:54 40.8 °F /  4.9 °C 38.1 °F /  3.4 °C 30.14in /  1020.5hPa West 0.4mph /  0.6km/h 2mph /  3.2km/h 90% 0.00in /  0mm 0 W/m2
02:59 40.6 °F /  4.8 °C 37.9 °F /  3.3 °C 30.14in /  1020.5hPa Calm   1mph /  1.6km/h 90% 0.00in /  0mm 0 W/m2
03:04 40.3 °F /  4.6 °C 37.6 °F /  3.1 °C 30.15in /  1020.9hPa West 1.1mph /  1.8km/h 2mph /  3.2km/h 90% 0.00in /  0mm 0 W/m2
03:09 39.8 °F /  4.3 °C 37.1 °F /  2.8 °C 30.15in /  1020.9hPa West 1.3mph /  2.1km/h 2mph /  3.2km/h 90% 0.00in /  0mm 0 W/m2
03:14 39.6 °F /  4.2 °C 36.9 °F /  2.7 °C 30.15in /  1020.9hPa WNW 1.3mph /  2.1km/h 3mph /  4.8km/h 90% 0.00in /  0mm 0 W/m2
03:19 39.4 °F /  4.1 °C 36.7 °F /  2.6 °C 30.15in /  1020.9hPa WNW 0.9mph /  1.4km/h 2mph /  3.2km/h 90% 0.00in /  0mm 0 W/m2
03:24 39.2 °F /  4 °C 36.8 °F /  2.7 °C 30.15in /  1020.9hPa WNW 0.8mph /  1.3km/h 2mph /  3.2km/h 90.6% 0.00in /  0mm 0 W/m2
03:29 39 °F /  3.9 °C 36.7 °F /  2.6 °C 30.15in /  1020.9hPa WNW 0.2mph /  0.3km/h 2mph /  3.2km/h 91% 0.00in /  0mm 0 W/m2
03:34 39 °F /  3.9 °C 36.7 °F /  2.6 °C 30.15in /  1020.9hPa WNW 0.4mph /  0.6km/h 2mph /  3.2km/h 91% 0.00in /  0mm 0 W/m2
03:39 38.8 °F /  3.8 °C 36.5 °F /  2.5 °C 30.16in /  1021.2hPa WNW 2.3mph /  3.7km/h 3mph /  4.8km/h 91% 0.00in /  0mm 0 W/m2
03:44 38.8 °F /  3.8 °C 36.5 °F /  2.5 °C 30.16in /  1021.2hPa NW 2.2mph /  3.5km/h 3mph /  4.8km/h 91% 0.00in /  0mm 0 W/m2
03:49 38.8 °F /  3.8 °C 36.5 °F /  2.5 °C 30.16in /  1021.2hPa NE 1mph /  1.6km/h 3mph /  4.8km/h 91% 0.00in /  0mm 0 W/m2
03:54 38.7 °F /  3.7 °C 36.3 °F /  2.4 °C 30.16in /  1021.2hPa NE 0.8mph /  1.3km/h 3mph /  4.8km/h 91% 0.00in /  0mm 0 W/m2
03:59 38.6 °F /  3.7 °C 36.2 °F /  2.3 °C 30.16in /  1021.2hPa NE 0.4mph /  0.6km/h 3mph /  4.8km/h 91% 0.00in /  0mm 0 W/m2
04:04 38.5 °F /  3.6 °C 36.1 °F /  2.3 °C 30.16in /  1021.2hPa NE 0.8mph /  1.3km/h 2mph /  3.2km/h 91% 0.00in /  0mm 0 W/m2
04:09 38.3 °F /  3.5 °C 36 °F /  2.2 °C 30.16in /  1021.2hPa NE 2mph /  3.2km/h 3mph /  4.8km/h 91% 0.00in /  0mm 0 W/m2
04:14 38.3 °F /  3.5 °C 36.1 °F /  2.3 °C 30.16in /  1021.2hPa NE 1.2mph /  1.9km/h 3mph /  4.8km/h 91.8% 0.00in /  0mm 0 W/m2
04:19 38.2 °F /  3.4 °C 36 °F /  2.2 °C 30.16in /  1021.2hPa NE 0.5mph /  0.8km/h 2mph /  3.2km/h 92% 0.00in /  0mm 0 W/m2
04:24 38.1 °F /  3.4 °C 36 °F /  2.2 °C 30.16in /  1021.2hPa NE 1.1mph /  1.8km/h 2mph /  3.2km/h 92% 0.00in /  0mm 0 W/m2
04:28 38 °F /  3.3 °C 35.8 °F /  2.1 °C 30.17in /  1021.6hPa ENE 1.7mph /  2.7km/h 3mph /  4.8km/h 92% 0.00in /  0mm 0 W/m2
04:34 38 °F /  3.3 °C 35.9 °F /  2.2 °C 30.17in /  1021.6hPa East 1.6mph /  2.6km/h 3mph /  4.8km/h 92% 0.00in /  0mm 0 W/m2
04:39 37.9 °F /  3.3 °C 35.8 °F /  2.1 °C 30.17in /  1021.6hPa East 1.3mph /  2.1km/h 3mph /  4.8km/h 92% 0.00in /  0mm 0 W/m2
04:44 37.9 °F /  3.3 °C 35.8 °F /  2.1 °C 30.17in /  1021.6hPa East 0.9mph /  1.4km/h 3mph /  4.8km/h 92% 0.00in /  0mm 0 W/m2
04:49 37.8 °F /  3.2 °C 35.6 °F /  2 °C 30.17in /  1021.6hPa East 0.7mph /  1.1km/h 2mph /  3.2km/h 92% 0.00in /  0mm 0 W/m2
04:54 37.7 °F /  3.2 °C 35.5 °F /  1.9 °C 30.17in /  1021.6hPa East 1.1mph /  1.8km/h 2mph /  3.2km/h 92% 0.00in /  0mm 0 W/m2
04:59 37.6 °F /  3.1 °C 35.4 °F /  1.9 °C 30.17in /  1021.6hPa East 0.2mph /  0.3km/h 2mph /  3.2km/h 92% 0.00in /  0mm 0 W/m2
05:04 37.5 °F /  3.1 °C 35.3 °F /  1.8 °C 30.18in /  1021.9hPa East 0.6mph /  1km/h 2mph /  3.2km/h 92% 0.00in /  0mm 0 W/m2
05:09 37 °F /  2.8 °C 34.9 °F /  1.6 °C 30.18in /  1021.9hPa East 1.3mph /  2.1km/h 2mph /  3.2km/h 92% 0.00in /  0mm 0 W/m2
05:14 37 °F /  2.8 °C 34.9 °F /  1.6 °C 30.17in /  1021.6hPa East 2mph /  3.2km/h 2mph /  3.2km/h 92% 0.00in /  0mm 0 W/m2
05:19 37.1 °F /  2.8 °C 35.2 °F /  1.8 °C 30.18in /  1021.9hPa NE 2.4mph /  3.9km/h 3mph /  4.8km/h 92.6% 0.00in /  0mm 0 W/m2
05:24 37.2 °F /  2.9 °C 35.4 °F /  1.9 °C 30.18in /  1021.9hPa NE 1.7mph /  2.7km/h 3mph /  4.8km/h 93% 0.00in /  0mm 0 W/m2
05:29 37.2 °F /  2.9 °C 35.4 °F /  1.9 °C 30.18in /  1021.9hPa Calm   2mph /  3.2km/h 93% 0.00in /  0mm 0 W/m2
05:34 37 °F /  2.8 °C 35.2 °F /  1.8 °C 30.18in /  1021.9hPa Calm   1mph /  1.6km/h 93% 0.00in /  0mm 0 W/m2
05:39 36.9 °F /  2.7 °C 35.1 °F /  1.7 °C 30.19in /  1022.2hPa NE 0.4mph /  0.6km/h 2mph /  3.2km/h 93% 0.00in /  0mm 0 W/m2
05:44 36.7 °F /  2.6 °C 34.9 °F /  1.6 °C 30.19in /  1022.2hPa NE 0.5mph /  0.8km/h 1mph /  1.6km/h 93% 0.00in /  0mm 0 W/m2
05:49 36.5 °F /  2.5 °C 34.7 °F /  1.5 °C 30.19in /  1022.2hPa NE 1.6mph /  2.6km/h 2mph /  3.2km/h 93% 0.00in /  0mm 0 W/m2
05:54 36.6 °F /  2.6 °C 34.8 °F /  1.6 °C 30.19in /  1022.2hPa NNE 1.8mph /  2.9km/h 3mph /  4.8km/h 93% 0.00in /  0mm 0 W/m2
05:59 36.3 °F /  2.4 °C 34.6 °F /  1.4 °C 30.19in /  1022.2hPa NNW 1.5mph /  2.4km/h 3mph /  4.8km/h 93% 0.00in /  0mm 0 W/m2
06:04 36.3 °F /  2.4 °C 34.5 °F /  1.4 °C 30.19in /  1022.2hPa NNW 1.6mph /  2.6km/h 2mph /  3.2km/h 93% 0.00in /  0mm 0 W/m2
06:09 36.2 °F /  2.3 °C 34.4 °F /  1.3 °C 30.20in /  1022.6hPa NNW 2mph /  3.2km/h 3mph /  4.8km/h 93% 0.00in /  0mm 0 W/m2
06:14 36.7 °F /  2.6 °C 34.9 °F /  1.6 °C 30.20in /  1022.6hPa NNW 1.8mph /  2.9km/h 4mph /  6.4km/h 93% 0.00in /  0mm 0 W/m2
06:19 36.9 °F /  2.7 °C 35.1 °F /  1.7 °C 30.20in /  1022.6hPa NNW 1.4mph /  2.3km/h 3mph /  4.8km/h 93% 0.00in /  0mm 0 W/m2
06:24 36.6 °F /  2.6 °C 34.8 °F /  1.6 °C 30.20in /  1022.6hPa NNW 0.9mph /  1.4km/h 2mph /  3.2km/h 93% 0.00in /  0mm 0 W/m2
06:29 36.2 °F /  2.3 °C 34.4 °F /  1.3 °C 30.20in /  1022.6hPa NNW 0.4mph /  0.6km/h 2mph /  3.2km/h 93% 0.00in /  0mm 0 W/m2
06:34 36 °F /  2.2 °C 34.2 °F /  1.2 °C 30.21in /  1022.9hPa NNW 0.9mph /  1.4km/h 2mph /  3.2km/h 93% 0.00in /  0mm 0 W/m2
06:39 35.9 °F /  2.2 °C 34.1 °F /  1.2 °C 30.21in /  1022.9hPa NNW 2.4mph /  3.9km/h 3mph /  4.8km/h 93% 0.00in /  0mm 0 W/m2
06:44 36 °F /  2.2 °C 34.2 °F /  1.2 °C 30.21in /  1022.9hPa NNW 2mph /  3.2km/h 3mph /  4.8km/h 93% 0.00in /  0mm 0 W/m2
06:49 36.1 °F /  2.3 °C 34.3 °F /  1.3 °C 30.21in /  1022.9hPa NW 2.5mph /  4km/h 3mph /  4.8km/h 93% 0.00in /  0mm 0 W/m2
06:54 36.3 °F /  2.4 °C 34.7 °F /  1.5 °C 30.21in /  1022.9hPa NW 2.7mph /  4.3km/h 4mph /  6.4km/h 93.8% 0.00in /  0mm 0 W/m2
06:59 36.7 °F /  2.6 °C 35.1 °F /  1.7 °C 30.21in /  1022.9hPa NNW 2.8mph /  4.5km/h 4mph /  6.4km/h 94% 0.00in /  0mm 0 W/m2
07:04 37 °F /  2.8 °C 35.4 °F /  1.9 °C 30.21in /  1022.9hPa NNW 3mph /  4.8km/h 5mph /  8km/h 94% 0.00in /  0mm 0 W/m2
07:09 37.3 °F /  2.9 °C 35.7 °F /  2.1 °C 30.21in /  1022.9hPa NW 3.5mph /  5.6km/h 5mph /  8km/h 94% 0.00in /  0mm 0 W/m2
07:14 37 °F /  2.8 °C 35.4 °F /  1.9 °C 30.21in /  1022.9hPa NNW 2.2mph /  3.5km/h 4mph /  6.4km/h 94% 0.00in /  0mm 0 W/m2
07:19 36.9 °F /  2.7 °C 35.3 °F /  1.8 °C 30.22in /  1023.2hPa NNW 2.2mph /  3.5km/h 4mph /  6.4km/h 94% 0.00in /  0mm 0 W/m2
07:24 36.6 °F /  2.6 °C 35 °F /  1.7 °C 30.22in /  1023.2hPa NNW 2.3mph /  3.7km/h 4mph /  6.4km/h 94% 0.00in /  0mm 0 W/m2
07:29 36.4 °F /  2.4 °C 34.8 °F /  1.6 °C 30.22in /  1023.2hPa North 2.3mph /  3.7km/h 4mph /  6.4km/h 94% 0.00in /  0mm 0 W/m2
07:34 36.5 °F /  2.5 °C 34.9 °F /  1.6 °C 30.22in /  1023.2hPa NNE 2.4mph /  3.9km/h 4mph /  6.4km/h 94% 0.00in /  0mm 0 W/m2
07:39 36.8 °F /  2.7 °C 35.1 °F /  1.7 °C 30.22in /  1023.2hPa NNE 1.2mph /  1.9km/h 3mph /  4.8km/h 94% 0.00in /  0mm 0 W/m2
07:44 36.9 °F /  2.7 °C 35.2 °F /  1.8 °C 30.22in /  1023.2hPa NNE 0.5mph /  0.8km/h 1mph /  1.6km/h 94% 0.00in /  0mm 0 W/m2
07:49 36.7 °F /  2.6 °C 35.1 °F /  1.7 °C 30.23in /  1023.6hPa East 1.8mph /  2.9km/h 3mph /  4.8km/h 94% 0.00in /  0mm 0 W/m2
07:54 36.7 °F /  2.6 °C 35.1 °F /  1.7 °C 30.23in /  1023.6hPa SE 1.3mph /  2.1km/h 3mph /  4.8km/h 94% 0.00in /  0mm 0 W/m2
07:59 36.3 °F /  2.4 °C 34.7 °F /  1.5 °C 30.24in /  1023.9hPa SE 0.9mph /  1.4km/h 2mph /  3.2km/h 94% 0.00in /  0mm 0 W/m2
08:04 36.1 °F /  2.3 °C 34.5 °F /  1.4 °C 30.24in /  1023.9hPa SE 0.7mph /  1.1km/h 2mph /  3.2km/h 94% 0.00in /  0mm 0 W/m2
08:09 36.5 °F /  2.5 °C 34.9 °F /  1.6 °C 30.24in /  1023.9hPa SE 0.2mph /  0.3km/h 1mph /  1.6km/h 94% 0.00in /  0mm 0 W/m2
08:14 36.6 °F /  2.6 °C 35 °F /  1.7 °C 30.24in /  1023.9hPa SE 0.5mph /  0.8km/h 2mph /  3.2km/h 94% 0.00in /  0mm 5 W/m2
08:19 36.1 °F /  2.3 °C 34.5 °F /  1.4 °C 30.24in /  1023.9hPa East 1.3mph /  2.1km/h 3mph /  4.8km/h 94% 0.00in /  0mm 5 W/m2
08:24 36 °F /  2.2 °C 34.3 °F /  1.3 °C 30.24in /  1023.9hPa ENE 1.3mph /  2.1km/h 3mph /  4.8km/h 94% 0.00in /  0mm 7 W/m2
08:29 36.1 °F /  2.3 °C 34.4 °F /  1.3 °C 30.25in /  1024.3hPa ENE 1.6mph /  2.6km/h 3mph /  4.8km/h 94% 0.00in /  0mm 9 W/m2
08:34 35.9 °F /  2.2 °C 34.3 °F /  1.3 °C 30.25in /  1024.3hPa ENE 1.8mph /  2.9km/h 2mph /  3.2km/h 94% 0.00in /  0mm 11 W/m2
08:39 35.8 °F /  2.1 °C 34.2 °F /  1.2 °C 30.25in /  1024.3hPa NNE 2mph /  3.2km/h 3mph /  4.8km/h 94% 0.00in /  0mm 12 W/m2
08:43 35.8 °F /  2.1 °C 34.2 °F /  1.2 °C 30.25in /  1024.3hPa North 2.5mph /  4km/h 3mph /  4.8km/h 94% 0.00in /  0mm 14 W/m2
08:49 36.1 °F /  2.3 °C 34.5 °F /  1.4 °C 30.26in /  1024.6hPa North 2mph /  3.2km/h 3mph /  4.8km/h 94% 0.00in /  0mm 16 W/m2
08:54 36.3 °F /  2.4 °C 34.7 °F /  1.5 °C 30.26in /  1024.6hPa North 2mph /  3.2km/h 3mph /  4.8km/h 94% 0.00in /  0mm 16 W/m2
08:59 36.6 °F /  2.6 °C 35 °F /  1.7 °C 30.26in /  1024.6hPa North 0.8mph /  1.3km/h 3mph /  4.8km/h 94% 0.00in /  0mm 18 W/m2
09:04 36.4 °F /  2.4 °C 35 °F /  1.7 °C 30.26in /  1024.6hPa North 1.8mph /  2.9km/h 2mph /  3.2km/h 94.4% 0.00in /  0mm 19 W/m2
09:09 36.5 °F /  2.5 °C 35.1 °F /  1.7 °C 30.27in /  1024.9hPa North 1.3mph /  2.1km/h 2mph /  3.2km/h 94.4% 0.00in /  0mm 19 W/m2
09:14 36.9 °F /  2.7 °C 35.6 °F /  2 °C 30.27in /  1024.9hPa North 0.2mph /  0.3km/h 2mph /  3.2km/h 95% 0.00in /  0mm 21 W/m2
09:19 37 °F /  2.8 °C 35.8 °F /  2.1 °C 30.27in /  1024.9hPa Calm   1mph /  1.6km/h 95% 0.00in /  0mm 23 W/m2
09:24 37.2 °F /  2.9 °C 36 °F /  2.2 °C 30.27in /  1024.9hPa Calm   1mph /  1.6km/h 95% 0.00in /  0mm 23 W/m2
09:29 38 °F /  3.3 °C 36.7 °F /  2.6 °C 30.27in /  1024.9hPa North 0.2mph /  0.3km/h 1mph /  1.6km/h 95% 0.00in /  0mm 25 W/m2
09:34 38.1 °F /  3.4 °C 36.9 °F /  2.7 °C 30.27in /  1024.9hPa Calm     95% 0.00in /  0mm 25 W/m2
09:38 38.7 °F /  3.7 °C 37.4 °F /  3 °C 30.27in /  1024.9hPa Calm   1mph /  1.6km/h 95% 0.00in /  0mm 25 W/m2
09:44 39 °F /  3.9 °C 37.8 °F /  3.2 °C 30.27in /  1024.9hPa North 0.9mph /  1.4km/h 2mph /  3.2km/h 95% 0.00in /  0mm 26 W/m2
09:49 38.5 °F /  3.6 °C 37.2 °F /  2.9 °C 30.28in /  1025.3hPa North 0.9mph /  1.4km/h 2mph /  3.2km/h 95% 0.00in /  0mm 30 W/m2
09:54 38.8 °F /  3.8 °C 37.6 °F /  3.1 °C 30.28in /  1025.3hPa ESE 1.8mph /  2.9km/h 3mph /  4.8km/h 95% 0.00in /  0mm 33 W/m2
09:59 38.7 °F /  3.7 °C 37.4 °F /  3 °C 30.28in /  1025.3hPa SE 1.3mph /  2.1km/h 2mph /  3.2km/h 95% 0.00in /  0mm 37 W/m2
10:04 39.2 °F /  4 °C 38 °F /  3.3 °C 30.28in /  1025.3hPa Calm   2mph /  3.2km/h 95% 0.00in /  0mm 44 W/m2
10:09 39.6 °F /  4.2 °C 38.4 °F /  3.6 °C 30.28in /  1025.3hPa Calm   1mph /  1.6km/h 95% 0.00in /  0mm 51 W/m2
10:14 40.2 °F /  4.6 °C 38.9 °F /  3.8 °C 30.28in /  1025.3hPa Calm   1mph /  1.6km/h 95% 0.00in /  0mm 56 W/m2
10:19 40.4 °F /  4.7 °C 39.1 °F /  3.9 °C 30.28in /  1025.3hPa SE 0.8mph /  1.3km/h 2mph /  3.2km/h 95% 0.00in /  0mm 63 W/m2
10:24 40.6 °F /  4.8 °C 39.4 °F /  4.1 °C 30.28in /  1025.3hPa SE 0.9mph /  1.4km/h 2mph /  3.2km/h 95% 0.00in /  0mm 70 W/m2
10:29 41 °F /  5 °C 39.8 °F /  4.3 °C 30.28in /  1025.3hPa SW 2.1mph /  3.4km/h 3mph /  4.8km/h 95% 0.00in /  0mm 81 W/m2
10:34 41.3 °F /  5.2 °C 40 °F /  4.4 °C 30.28in /  1025.3hPa WSW 0.8mph /  1.3km/h 3mph /  4.8km/h 95% 0.00in /  0mm 86 W/m2
10:39 41.6 °F /  5.3 °C 40.4 °F /  4.7 °C 30.28in /  1025.3hPa Calm   2mph /  3.2km/h 95% 0.00in /  0mm 97 W/m2
10:44 42.5 °F /  5.8 °C 41.3 °F /  5.2 °C 30.28in /  1025.3hPa Calm   1mph /  1.6km/h 95% 0.00in /  0mm 102 W/m2
10:49 42.6 °F /  5.9 °C 41.1 °F /  5.1 °C 30.28in /  1025.3hPa WSW 0.5mph /  0.8km/h 2mph /  3.2km/h 94.3% 0.00in /  0mm 107 W/m2
10:54 42.6 °F /  5.9 °C 41 °F /  5 °C 30.28in /  1025.3hPa WSW 1.5mph /  2.4km/h 3mph /  4.8km/h 94% 0.00in /  0mm 118 W/m2
10:59 42.8 °F /  6 °C 41.1 °F /  5.1 °C 30.28in /  1025.3hPa WSW 1.6mph /  2.6km/h 3mph /  4.8km/h 93.6% 0.00in /  0mm 125 W/m2
11:04 43.2 °F /  6.2 °C 41.4 °F /  5.2 °C 30.28in /  1025.3hPa WSW 0.4mph /  0.6km/h 3mph /  4.8km/h 93% 0.00in /  0mm 130 W/m2
11:09 43.7 °F /  6.5 °C 41.6 °F /  5.3 °C 30.28in /  1025.3hPa WSW 1mph /  1.6km/h 3mph /  4.8km/h 92.2% 0.00in /  0mm 139 W/m2
11:14 43.7 °F /  6.5 °C 41.3 °F /  5.2 °C 30.28in /  1025.3hPa WSW 2.4mph /  3.9km/h 3mph /  4.8km/h 91.2% 0.00in /  0mm 148 W/m2
11:19 43.9 °F /  6.6 °C 41.2 °F /  5.1 °C 30.28in /  1025.3hPa SW 1.2mph /  1.9km/h 3mph /  4.8km/h 90% 0.00in /  0mm 151 W/m2
11:24 44.6 °F /  7 °C 41.8 °F /  5.4 °C 30.28in /  1025.3hPa SSW 1mph /  1.6km/h 3mph /  4.8km/h 89.8% 0.00in /  0mm 160 W/m2
11:28 44.3 °F /  6.8 °C 41.2 °F /  5.1 °C 30.28in /  1025.3hPa SW 1.5mph /  2.4km/h 3mph /  4.8km/h 88.3% 0.00in /  0mm 162 W/m2
11:34 45 °F /  7.2 °C 41.5 °F /  5.3 °C 30.28in /  1025.3hPa SW 0.6mph /  1km/h 2mph /  3.2km/h 87.8% 0.00in /  0mm 162 W/m2
11:39 45.1 °F /  7.3 °C 41.4 °F /  5.2 °C 30.28in /  1025.3hPa SW 1.5mph /  2.4km/h 3mph /  4.8km/h 86.6% 0.00in /  0mm 163 W/m2
11:44 45.8 °F /  7.7 °C 41.8 °F /  5.4 °C 30.28in /  1025.3hPa SSW 1.1mph /  1.8km/h 3mph /  4.8km/h 85.8% 0.00in /  0mm 163 W/m2
11:49 45.7 °F /  7.6 °C 41.3 °F /  5.2 °C 30.28in /  1025.3hPa SSW 1.3mph /  2.1km/h 3mph /  4.8km/h 84.4% 0.00in /  0mm 165 W/m2
11:54 46 °F /  7.8 °C 41.5 °F /  5.3 °C 30.28in /  1025.3hPa SSW 0.5mph /  0.8km/h 3mph /  4.8km/h 84% 0.00in /  0mm 167 W/m2
11:59 46.4 °F /  8 °C 41.8 °F /  5.4 °C 30.27in /  1024.9hPa SW 1.6mph /  2.6km/h 3mph /  4.8km/h 83.6% 0.00in /  0mm 171 W/m2
12:04 46.6 °F /  8.1 °C 41.7 °F /  5.4 °C 30.28in /  1025.3hPa SW 0.4mph /  0.6km/h 3mph /  4.8km/h 83% 0.00in /  0mm 171 W/m2
12:09 46.8 °F /  8.2 °C 41.8 °F /  5.4 °C 30.27in /  1024.9hPa West 1.3mph /  2.1km/h 3mph /  4.8km/h 82.8% 0.00in /  0mm 172 W/m2
12:14 46.1 °F /  7.8 °C 40.9 °F /  4.9 °C 30.27in /  1024.9hPa NW 1.7mph /  2.7km/h 3mph /  4.8km/h 82% 0.00in /  0mm 172 W/m2
12:19 46.2 °F /  7.9 °C 41.4 °F /  5.2 °C 30.27in /  1024.9hPa WNW 0.8mph /  1.3km/h 3mph /  4.8km/h 83% 0.00in /  0mm 174 W/m2
12:24 46.7 °F /  8.2 °C 41.8 °F /  5.4 °C 30.27in /  1024.9hPa West 0.9mph /  1.4km/h 3mph /  4.8km/h 82.8% 0.00in /  0mm 174 W/m2
12:29 47.1 °F /  8.4 °C 42 °F /  5.6 °C 30.27in /  1024.9hPa WSW 2.2mph /  3.5km/h 4mph /  6.4km/h 82.2% 0.00in /  0mm 178 W/m2
12:34 47.2 °F /  8.4 °C 41.8 °F /  5.4 °C 30.27in /  1024.9hPa WSW 2mph /  3.2km/h 4mph /  6.4km/h 81.4% 0.00in /  0mm 176 W/m2
12:39 47.1 °F /  8.4 °C 41.5 °F /  5.3 °C 30.27in /  1024.9hPa WNW 3.2mph /  5.1km/h 5mph /  8km/h 81% 0.00in /  0mm 176 W/m2
12:44 47.3 °F /  8.5 °C 41.7 °F /  5.4 °C 30.27in /  1024.9hPa West 2.5mph /  4km/h 4mph /  6.4km/h 81% 0.00in /  0mm 176 W/m2
12:49 47.3 °F /  8.5 °C 41.5 °F /  5.3 °C 30.27in /  1024.9hPa West 1.2mph /  1.9km/h 3mph /  4.8km/h 80.2% 0.00in /  0mm 174 W/m2
12:54 47.8 °F /  8.8 °C 41.9 °F /  5.5 °C 30.27in /  1024.9hPa WNW 1.7mph /  2.7km/h 3mph /  4.8km/h 80% 0.00in /  0mm 171 W/m2
12:59 48.1 °F /  8.9 °C 42.1 °F /  5.6 °C 30.27in /  1024.9hPa WSW 0.8mph /  1.3km/h 2mph /  3.2km/h 79.6% 0.00in /  0mm 171 W/m2
13:04 47.9 °F /  8.8 °C 41.6 °F /  5.3 °C 30.27in /  1024.9hPa WSW 1.4mph /  2.3km/h 3mph /  4.8km/h 78.4% 0.00in /  0mm 169 W/m2
13:09 48 °F /  8.9 °C 41.7 °F /  5.4 °C 30.27in /  1024.9hPa WSW 1.3mph /  2.1km/h 3mph /  4.8km/h 78.4% 0.00in /  0mm 167 W/m2
13:14 47.9 °F /  8.8 °C 41.5 °F /  5.3 °C 30.26in /  1024.6hPa SSW 1.3mph /  2.1km/h 3mph /  4.8km/h 78.2% 0.00in /  0mm 163 W/m2
13:19 48.2 °F /  9 °C 41.6 °F /  5.3 °C 30.26in /  1024.6hPa South 1.8mph /  2.9km/h 3mph /  4.8km/h 77.8% 0.00in /  0mm 160 W/m2
13:24 47.6 °F /  8.7 °C 40.8 °F /  4.9 °C 30.26in /  1024.6hPa South 2.5mph /  4km/h 4mph /  6.4km/h 77.3% 0.00in /  0mm 155 W/m2
13:29 47.9 °F /  8.8 °C 41.6 °F /  5.3 °C 30.26in /  1024.6hPa SSW 1.6mph /  2.6km/h 3mph /  4.8km/h 78.2% 0.01in /  0.25mm 153 W/m2
13:34 48.5 °F /  9.2 °C 42.1 °F /  5.6 °C 30.27in /  1024.9hPa SSW 0.9mph /  1.4km/h 3mph /  4.8km/h 78.2% 0.01in /  0.25mm 151 W/m2
13:39 48.8 °F /  9.3 °C 42 °F /  5.6 °C 30.27in /  1024.9hPa South 1.1mph /  1.8km/h 3mph /  4.8km/h 77.2% 0.01in /  0.25mm 144 W/m2
13:44 48.6 °F /  9.2 °C 41.6 °F /  5.3 °C 30.27in /  1024.9hPa South 1.2mph /  1.9km/h 3mph /  4.8km/h 76.4% 0.01in /  0.25mm 139 W/m2
13:49 48.6 °F /  9.2 °C 41.4 °F /  5.2 °C 30.27in /  1024.9hPa SSW 2mph /  3.2km/h 4mph /  6.4km/h 76.2% 0.01in /  0.25mm 135 W/m2
13:53 48.7 °F /  9.3 °C 41.8 °F /  5.4 °C 30.27in /  1024.9hPa SSW 1.5mph /  2.4km/h 3mph /  4.8km/h 77% 0.01in /  0.25mm 128 W/m2
13:59 48.9 °F /  9.4 °C 41.7 °F /  5.4 °C 30.27in /  1024.9hPa SSW 1.9mph /  3.1km/h 4mph /  6.4km/h 76% 0.01in /  0.25mm 123 W/m2
14:04 48.7 °F /  9.3 °C 41.5 °F /  5.3 °C 30.27in /  1024.9hPa SSE 1.8mph /  2.9km/h 4mph /  6.4km/h 76% 0.01in /  0.25mm 113 W/m2
14:09 48.4 °F /  9.1 °C 41 °F /  5 °C 30.27in /  1024.9hPa SSE 2.3mph /  3.7km/h 4mph /  6.4km/h 75.4% 0.01in /  0.25mm 107 W/m2
14:14 48 °F /  8.9 °C 40.6 °F /  4.8 °C 30.27in /  1024.9hPa SSE 2.3mph /  3.7km/h 5mph /  8km/h 75.2% 0.01in /  0.25mm 107 W/m2
14:19 49.4 °F /  9.7 °C 42.3 °F /  5.7 °C 30.27in /  1024.9hPa East 1.7mph /  2.7km/h 3mph /  4.8km/h 76.4% 0.01in /  0.25mm 102 W/m2
14:24 50.3 °F /  10.2 °C 42.6 °F /  5.9 °C 30.27in /  1024.9hPa East 1.5mph /  2.4km/h 5mph /  8km/h 74.8% 0.01in /  0.25mm 93 W/m2
14:29 51.2 °F /  10.7 °C 43 °F /  6.1 °C 30.27in /  1024.9hPa ESE 1.6mph /  2.6km/h 4mph /  6.4km/h 73.2% 0.00in /  0mm 90 W/m2
14:34 49.9 °F /  9.9 °C 40.9 °F /  4.9 °C 30.27in /  1024.9hPa SE 1.3mph /  2.1km/h 4mph /  6.4km/h 70.8% 0.00in /  0mm 83 W/m2
14:39 49.3 °F /  9.6 °C 41.1 °F /  5.1 °C 30.27in /  1024.9hPa SSE 1.3mph /  2.1km/h 3mph /  4.8km/h 73.2% 0.00in /  0mm 74 W/m2
14:44 48.8 °F /  9.3 °C 40.9 °F /  4.9 °C 30.27in /  1024.9hPa SSE 2.7mph /  4.3km/h 4mph /  6.4km/h 74% 0.00in /  0mm 63 W/m2
14:49 48 °F /  8.9 °C 40.4 °F /  4.7 °C 30.27in /  1024.9hPa SSE 3.5mph /  5.6km/h 5mph /  8km/h 75% 0.00in /  0mm 62 W/m2
14:54 47.8 °F /  8.8 °C 40.6 °F /  4.8 °C 30.27in /  1024.9hPa SSE 2.7mph /  4.3km/h 4mph /  6.4km/h 76% 0.00in /  0mm 60 W/m2
14:59 47.7 °F /  8.7 °C 40.8 °F /  4.9 °C 30.27in /  1024.9hPa SSE 2.7mph /  4.3km/h 5mph /  8km/h 76.8% 0.00in /  0mm 53 W/m2
15:04 47.7 °F /  8.7 °C 40.8 °F /  4.9 °C 30.26in /  1024.6hPa SSE 2.7mph /  4.3km/h 5mph /  8km/h 77% 0.00in /  0mm 42 W/m2
15:09 47.5 °F /  8.6 °C 40.6 °F /  4.8 °C 30.26in /  1024.6hPa SSE 3.3mph /  5.3km/h 5mph /  8km/h 77% 0.00in /  0mm 39 W/m2
15:14 47.5 °F /  8.6 °C 40.8 °F /  4.9 °C 30.26in /  1024.6hPa SSE 1mph /  1.6km/h 3mph /  4.8km/h 77.6% 0.00in /  0mm 35 W/m2
15:19 47.5 °F /  8.6 °C 40.7 °F /  4.8 °C 30.26in /  1024.6hPa SSE 2mph /  3.2km/h 4mph /  6.4km/h 77.4% 0.00in /  0mm 33 W/m2
15:24 47.1 °F /  8.4 °C 40.6 °F /  4.8 °C 30.26in /  1024.6hPa SSE 1.3mph /  2.1km/h 4mph /  6.4km/h 78% 0.00in /  0mm 28 W/m2
15:29 46.8 °F /  8.2 °C 40.4 °F /  4.7 °C 30.26in /  1024.6hPa SSE 1.2mph /  1.9km/h 3mph /  4.8km/h 78% 0.00in /  0mm 25 W/m2
15:34 46.6 °F /  8.1 °C 40.3 °F /  4.6 °C 30.26in /  1024.6hPa SE 2mph /  3.2km/h 4mph /  6.4km/h 78.6% 0.00in /  0mm 21 W/m2
15:39 46.6 °F /  8.1 °C 40.5 °F /  4.7 °C 30.26in /  1024.6hPa SE 1.2mph /  1.9km/h 4mph /  6.4km/h 79% 0.00in /  0mm 18 W/m2
15:44 46.6 °F /  8.1 °C 40.5 °F /  4.7 °C 30.26in /  1024.6hPa SE 1.3mph /  2.1km/h 4mph /  6.4km/h 79% 0.00in /  0mm 14 W/m2
15:49 46.2 °F /  7.9 °C 40.2 °F /  4.6 °C 30.26in /  1024.6hPa SE 1.5mph /  2.4km/h 3mph /  4.8km/h 79.3% 0.00in /  0mm 11 W/m2
15:54 45.9 °F /  7.7 °C 40.1 °F /  4.5 °C 30.26in /  1024.6hPa SE 0.9mph /  1.4km/h 3mph /  4.8km/h 80% 0.00in /  0mm 9 W/m2
15:59 45.8 °F /  7.7 °C 40 °F /  4.4 °C 30.26in /  1024.6hPa SE 1.3mph /  2.1km/h 3mph /  4.8km/h 80% 0.00in /  0mm 7 W/m2
16:04 45.6 °F /  7.6 °C 40.1 °F /  4.5 °C 30.26in /  1024.6hPa SE 0.8mph /  1.3km/h 2mph /  3.2km/h 81% 0.00in /  0mm 5 W/m2
16:09 45.4 °F /  7.4 °C 40 °F /  4.4 °C 30.26in /  1024.6hPa SE 0.7mph /  1.1km/h 2mph /  3.2km/h 81% 0.00in /  0mm 0 W/m2
16:14 45.1 °F /  7.3 °C 39.7 °F /  4.3 °C 30.26in /  1024.6hPa SE 1.3mph /  2.1km/h 2mph /  3.2km/h 81.2% 0.00in /  0mm 0 W/m2
16:19 44.6 °F /  7 °C 39.4 °F /  4.1 °C 30.26in /  1024.6hPa SE 1.6mph /  2.6km/h 2mph /  3.2km/h 81.6% 0.00in /  0mm 0 W/m2
16:24 44.1 °F /  6.7 °C 38.9 °F /  3.8 °C 30.26in /  1024.6hPa SE 0.9mph /  1.4km/h 3mph /  4.8km/h 82% 0.00in /  0mm 0 W/m2
16:29 43.7 °F /  6.5 °C 38.8 °F /  3.8 °C 30.26in /  1024.6hPa SE 0.9mph /  1.4km/h 2mph /  3.2km/h 82.8% 0.00in /  0mm 0 W/m2
16:34 43.3 °F /  6.3 °C 38.5 °F /  3.6 °C 30.26in /  1024.6hPa SE 1.8mph /  2.9km/h 3mph /  4.8km/h 83% 0.00in /  0mm 0 W/m2
16:39 43.3 °F /  6.3 °C 38.7 °F /  3.7 °C 30.25in /  1024.3hPa SE 0.9mph /  1.4km/h 3mph /  4.8km/h 83.8% 0.00in /  0mm 0 W/m2
16:44 43.2 °F /  6.2 °C 38.7 °F /  3.7 °C 30.25in /  1024.3hPa SE 0.2mph /  0.3km/h 3mph /  4.8km/h 84% 0.00in /  0mm 0 W/m2
16:49 42.9 °F /  6.1 °C 38.4 °F /  3.6 °C 30.25in /  1024.3hPa SE 0.2mph /  0.3km/h 1mph /  1.6km/h 84% 0.00in /  0mm 0 W/m2
16:53 42.5 °F /  5.8 °C 38.3 °F /  3.5 °C 30.25in /  1024.3hPa Calm   1mph /  1.6km/h 84.8% 0.00in /  0mm 0 W/m2
16:59 42.4 °F /  5.8 °C 38.3 °F /  3.5 °C 30.25in /  1024.3hPa Calm   1mph /  1.6km/h 85% 0.00in /  0mm 0 W/m2
17:04 42.3 °F /  5.7 °C 38.1 °F /  3.4 °C 30.25in /  1024.3hPa SE 0.4mph /  0.6km/h 1mph /  1.6km/h 85% 0.00in /  0mm 0 W/m2
17:09 42.1 °F /  5.6 °C 37.9 °F /  3.3 °C 30.25in /  1024.3hPa Calm   1mph /  1.6km/h 85% 0.00in /  0mm 0 W/m2
17:14 41.7 °F /  5.4 °C 37.8 °F /  3.2 °C 30.25in /  1024.3hPa Calm   1mph /  1.6km/h 86% 0.00in /  0mm 0 W/m2
17:19 41.5 °F /  5.3 °C 37.6 °F /  3.1 °C 30.25in /  1024.3hPa SE 0.4mph /  0.6km/h 1mph /  1.6km/h 86% 0.00in /  0mm 0 W/m2
17:24 41.2 °F /  5.1 °C 37.4 °F /  3 °C 30.24in /  1023.9hPa Calm     86% 0.00in /  0mm 0 W/m2
17:29 40.6 °F /  4.8 °C 36.9 °F /  2.7 °C 30.24in /  1023.9hPa Calm     86% 0.00in /  0mm 0 W/m2
17:34 40.5 °F /  4.7 °C 36.9 °F /  2.7 °C 30.24in /  1023.9hPa Calm     86.8% 0.00in /  0mm 0 W/m2
17:39 40.4 °F /  4.7 °C 36.8 °F /  2.7 °C 30.24in /  1023.9hPa Calm     87% 0.00in /  0mm 0 W/m2
17:44 40.2 °F /  4.6 °C 36.6 °F /  2.6 °C 30.24in /  1023.9hPa Calm   1mph /  1.6km/h 87% 0.00in /  0mm 0 W/m2
17:49 39.9 °F /  4.4 °C 36.3 °F /  2.4 °C 30.24in /  1023.9hPa SE 0.5mph /  0.8km/h 2mph /  3.2km/h 87% 0.00in /  0mm 0 W/m2
17:54 39.9 °F /  4.4 °C 36.5 °F /  2.5 °C 30.24in /  1023.9hPa SE 0.9mph /  1.4km/h 2mph /  3.2km/h 87.4% 0.00in /  0mm 0 W/m2
17:59 39.7 °F /  4.3 °C 36.5 °F /  2.5 °C 30.24in /  1023.9hPa SE 0.7mph /  1.1km/h 2mph /  3.2km/h 88% 0.00in /  0mm 0 W/m2
18:04 39.7 °F /  4.3 °C 36.4 °F /  2.4 °C 30.24in /  1023.9hPa SE 0.7mph /  1.1km/h 1mph /  1.6km/h 88% 0.00in /  0mm 0 W/m2
18:09 39.6 °F /  4.2 °C 36.3 °F /  2.4 °C 30.23in /  1023.6hPa Calm   1mph /  1.6km/h 88% 0.00in /  0mm 0 W/m2
18:14 39.4 °F /  4.1 °C 36.3 °F /  2.4 °C 30.23in /  1023.6hPa SE 0.8mph /  1.3km/h 2mph /  3.2km/h 88.6% 0.00in /  0mm 0 W/m2
18:19 39.4 °F /  4.1 °C 36.5 °F /  2.5 °C 30.23in /  1023.6hPa Calm   2mph /  3.2km/h 89% 0.00in /  0mm 0 W/m2
18:24 39.4 °F /  4.1 °C 36.5 °F /  2.5 °C 30.23in /  1023.6hPa Calm   1mph /  1.6km/h 89% 0.00in /  0mm 0 W/m2
18:29 39.4 °F /  4.1 °C 36.5 °F /  2.5 °C 30.23in /  1023.6hPa SE 0.4mph /  0.6km/h 2mph /  3.2km/h 89% 0.00in /  0mm 0 W/m2
18:34 39.4 °F /  4.1 °C 36.5 °F /  2.5 °C 30.23in /  1023.6hPa SE 1.4mph /  2.3km/h 3mph /  4.8km/h 89% 0.00in /  0mm 0 W/m2
18:39 39.3 °F /  4.1 °C 36.3 °F /  2.4 °C 30.23in /  1023.6hPa SE 0.2mph /  0.3km/h 2mph /  3.2km/h 89% 0.00in /  0mm 0 W/m2
18:44 38.9 °F /  3.8 °C 36.1 °F /  2.3 °C 30.23in /  1023.6hPa SE 0.7mph /  1.1km/h 1mph /  1.6km/h 89.2% 0.00in /  0mm 0 W/m2
18:49 38.8 °F /  3.8 °C 36 °F /  2.2 °C 30.23in /  1023.6hPa SE 0.9mph /  1.4km/h 2mph /  3.2km/h 89.4% 0.00in /  0mm 0 W/m2
18:53 38.9 °F /  3.8 °C 36.2 °F /  2.3 °C 30.24in /  1023.9hPa SE 0.9mph /  1.4km/h 2mph /  3.2km/h 90% 0.00in /  0mm 0 W/m2
18:59 39 °F /  3.9 °C 36.3 °F /  2.4 °C 30.23in /  1023.6hPa SE 0.7mph /  1.1km/h 2mph /  3.2km/h 90% 0.00in /  0mm 0 W/m2
19:04 39 °F /  3.9 °C 36.3 °F /  2.4 °C 30.23in /  1023.6hPa SE 0.5mph /  0.8km/h 2mph /  3.2km/h 90% 0.00in /  0mm 0 W/m2
19:09 38.8 °F /  3.8 °C 36.1 °F /  2.3 °C 30.23in /  1023.6hPa SE 0.5mph /  0.8km/h 2mph /  3.2km/h 90% 0.00in /  0mm 0 W/m2
19:14 38.8 °F /  3.8 °C 36.1 °F /  2.3 °C 30.23in /  1023.6hPa SE 0.5mph /  0.8km/h 2mph /  3.2km/h 90% 0.00in /  0mm 0 W/m2
19:18 38.8 °F /  3.8 °C 36.1 °F /  2.3 °C 30.23in /  1023.6hPa SE 1mph /  1.6km/h 3mph /  4.8km/h 90% 0.00in /  0mm 0 W/m2
19:24 38.7 °F /  3.7 °C 36 °F /  2.2 °C 30.23in /  1023.6hPa SE 0.4mph /  0.6km/h 3mph /  4.8km/h 90% 0.00in /  0mm 0 W/m2
19:29 38.7 °F /  3.7 °C 36 °F /  2.2 °C 30.23in /  1023.6hPa ESE 1.3mph /  2.1km/h 4mph /  6.4km/h 90% 0.00in /  0mm 0 W/m2
19:34 38.8 °F /  3.8 °C 36.3 °F /  2.4 °C 30.23in /  1023.6hPa ESE 2.6mph /  4.2km/h 7mph /  11.3km/h 90.4% 0.00in /  0mm 0 W/m2
19:39 39.1 °F /  3.9 °C 36.8 °F /  2.7 °C 30.23in /  1023.6hPa ESE 0.7mph /  1.1km/h 3mph /  4.8km/h 91% 0.00in /  0mm 0 W/m2
19:44 38.9 °F /  3.8 °C 36.6 °F /  2.6 °C 30.23in /  1023.6hPa ESE 0.8mph /  1.3km/h 2mph /  3.2km/h 91% 0.00in /  0mm 0 W/m2
19:49 38.8 °F /  3.8 °C 36.5 °F /  2.5 °C 30.23in /  1023.6hPa SE 0.4mph /  0.6km/h 2mph /  3.2km/h 91% 0.00in /  0mm 0 W/m2
19:54 38.6 °F /  3.7 °C 36.2 °F /  2.3 °C 30.23in /  1023.6hPa SE 0.4mph /  0.6km/h 2mph /  3.2km/h 91% 0.00in /  0mm 0 W/m2
19:59 38.5 °F /  3.6 °C 36.1 °F /  2.3 °C 30.22in /  1023.2hPa SE 0.5mph /  0.8km/h 1mph /  1.6km/h 91% 0.00in /  0mm 0 W/m2
20:04 38.3 °F /  3.5 °C 36 °F /  2.2 °C 30.22in /  1023.2hPa SE 0.2mph /  0.3km/h 1mph /  1.6km/h 91% 0.00in /  0mm 0 W/m2
20:09 38.5 °F /  3.6 °C 36.1 °F /  2.3 °C 30.22in /  1023.2hPa SE 0.6mph /  1km/h 2mph /  3.2km/h 91% 0.00in /  0mm 0 W/m2
20:14 38.5 °F /  3.6 °C 36.1 °F /  2.3 °C 30.22in /  1023.2hPa SE 0.9mph /  1.4km/h 2mph /  3.2km/h 91% 0.00in /  0mm 0 W/m2
20:19 38.6 °F /  3.7 °C 36.2 °F /  2.3 °C 30.22in /  1023.2hPa SE 0.5mph /  0.8km/h 2mph /  3.2km/h 91% 0.00in /  0mm 0 W/m2
20:24 38.5 °F /  3.6 °C 36.1 °F /  2.3 °C 30.22in /  1023.2hPa SE 0.4mph /  0.6km/h 3mph /  4.8km/h 91% 0.00in /  0mm 0 W/m2
20:29 38.7 °F /  3.7 °C 36.3 °F /  2.4 °C 30.22in /  1023.2hPa SE 2.8mph /  4.5km/h 5mph /  8km/h 91% 0.00in /  0mm 0 W/m2
20:34 38.8 °F /  3.8 °C 36.5 °F /  2.5 °C 30.21in /  1022.9hPa ESE 2.3mph /  3.7km/h 6mph /  9.7km/h 91% 0.00in /  0mm 0 W/m2
20:39 39.2 °F /  4 °C 36.8 °F /  2.7 °C 30.21in /  1022.9hPa East 2.3mph /  3.7km/h 6mph /  9.7km/h 91% 0.00in /  0mm 0 W/m2
20:44 39.6 °F /  4.2 °C 37.2 °F /  2.9 °C 30.22in /  1023.2hPa SE 2.1mph /  3.4km/h 5mph /  8km/h 91.2% 0.00in /  0mm 0 W/m2
20:49 39.8 °F /  4.3 °C 37.5 °F /  3.1 °C 30.21in /  1022.9hPa SE 2.1mph /  3.4km/h 4mph /  6.4km/h 91% 0.00in /  0mm 0 W/m2
20:54 39.9 °F /  4.4 °C 37.6 °F /  3.1 °C 30.21in /  1022.9hPa SE 1.5mph /  2.4km/h 5mph /  8km/h 91% 0.00in /  0mm 0 W/m2
20:59 40 °F /  4.4 °C 37.7 °F /  3.2 °C 30.21in /  1022.9hPa ESE 2.6mph /  4.2km/h 5mph /  8km/h 91% 0.00in /  0mm 0 W/m2
21:04 40.3 °F /  4.6 °C 37.9 °F /  3.3 °C 30.21in /  1022.9hPa ESE 2.9mph /  4.7km/h 6mph /  9.7km/h 91% 0.00in /  0mm 0 W/m2
21:09 40.3 °F /  4.6 °C 37.9 °F /  3.3 °C 30.21in /  1022.9hPa ESE 3.2mph /  5.1km/h 8mph /  12.9km/h 91% 0.00in /  0mm 0 W/m2
21:14 40.5 °F /  4.7 °C 38.1 °F /  3.4 °C 30.21in /  1022.9hPa ESE 2.1mph /  3.4km/h 8mph /  12.9km/h 91% 0.00in /  0mm 0 W/m2
21:19 40.5 °F /  4.7 °C 38 °F /  3.3 °C 30.21in /  1022.9hPa ESE 2.8mph /  4.5km/h 6mph /  9.7km/h 90.6% 0.00in /  0mm 0 W/m2
21:24 40.5 °F /  4.7 °C 37.8 °F /  3.2 °C 30.21in /  1022.9hPa ESE 5.5mph /  8.9km/h 8mph /  12.9km/h 90% 0.00in /  0mm 0 W/m2
21:29 40.5 °F /  4.7 °C 37.8 °F /  3.2 °C 30.21in /  1022.9hPa ESE 4.4mph /  7.1km/h 7mph /  11.3km/h 90% 0.00in /  0mm 0 W/m2
21:34 40.4 °F /  4.7 °C 37.6 °F /  3.1 °C 30.20in /  1022.6hPa East 3.8mph /  6.1km/h 8mph /  12.9km/h 89.8% 0.00in /  0mm 0 W/m2
21:39 40.4 °F /  4.7 °C 37.3 °F /  2.9 °C 30.20in /  1022.6hPa East 2.5mph /  4km/h 8mph /  12.9km/h 89% 0.00in /  0mm 0 W/m2
21:44 40.3 °F /  4.6 °C 37.2 °F /  2.9 °C 30.20in /  1022.6hPa ESE 3.2mph /  5.1km/h 7mph /  11.3km/h 89% 0.00in /  0mm 0 W/m2
21:49 40.3 °F /  4.6 °C 37.2 °F /  2.9 °C 30.19in /  1022.2hPa ESE 4.2mph /  6.8km/h 8mph /  12.9km/h 89% 0.00in /  0mm 0 W/m2
21:54 40.3 °F /  4.6 °C 37.2 °F /  2.9 °C 30.20in /  1022.6hPa ESE 2.5mph /  4km/h 7mph /  11.3km/h 89% 0.00in /  0mm 0 W/m2
21:59 40.3 °F /  4.6 °C 37.2 °F /  2.9 °C 30.19in /  1022.2hPa East 4.1mph /  6.6km/h 7mph /  11.3km/h 89% 0.00in /  0mm 0 W/m2
22:04 40.1 °F /  4.5 °C 37 °F /  2.8 °C 30.19in /  1022.2hPa ESE 3.3mph /  5.3km/h 8mph /  12.9km/h 89% 0.00in /  0mm 0 W/m2
22:09 40 °F /  4.4 °C 37 °F /  2.8 °C 30.18in /  1021.9hPa ESE 5.5mph /  8.9km/h 9mph /  14.5km/h 89% 0.00in /  0mm 0 W/m2
22:14 40 °F /  4.4 °C 36.9 °F /  2.7 °C 30.18in /  1021.9hPa East 5mph /  8km/h 9mph /  14.5km/h 89% 0.00in /  0mm 0 W/m2
22:19 39.9 °F /  4.4 °C 36.9 °F /  2.7 °C 30.16in /  1021.2hPa East 6mph /  9.7km/h 10mph /  16.1km/h 89% 0.00in /  0mm 0 W/m2
22:24 40.1 °F /  4.5 °C 37 °F /  2.8 °C 30.16in /  1021.2hPa East 2.7mph /  4.3km/h 11mph /  17.7km/h 89% 0.00in /  0mm 0 W/m2
22:29 40.1 °F /  4.5 °C 37 °F /  2.8 °C 30.17in /  1021.6hPa ESE 4.1mph /  6.6km/h 9mph /  14.5km/h 89% 0.00in /  0mm 0 W/m2
22:34 40.1 °F /  4.5 °C 37 °F /  2.8 °C 30.18in /  1021.9hPa ESE 2.5mph /  4km/h 8mph /  12.9km/h 89% 0.00in /  0mm 0 W/m2
22:39 39.9 °F /  4.4 °C 36.9 °F /  2.7 °C 30.18in /  1021.9hPa East 2.8mph /  4.5km/h 5mph /  8km/h 89% 0.00in /  0mm 0 W/m2
22:44 39.8 °F /  4.3 °C 36.8 °F /  2.7 °C 30.17in /  1021.6hPa East 2.9mph /  4.7km/h 8mph /  12.9km/h 89% 0.00in /  0mm 0 W/m2
22:49 39.9 °F /  4.4 °C 36.9 °F /  2.7 °C 30.16in /  1021.2hPa ESE 2.9mph /  4.7km/h 8mph /  12.9km/h 89% 0.00in /  0mm 0 W/m2
22:53 40 °F /  4.4 °C 36.9 °F /  2.7 °C 30.16in /  1021.2hPa ESE 4mph /  6.4km/h 8mph /  12.9km/h 89% 0.00in /  0mm 0 W/m2
22:59 40.2 °F /  4.6 °C 37.1 °F /  2.8 °C 30.17in /  1021.6hPa ESE 4.3mph /  6.9km/h 9mph /  14.5km/h 89% 0.00in /  0mm 0 W/m2
23:04 40.3 °F /  4.6 °C 37.2 °F /  2.9 °C 30.17in /  1021.6hPa East 3.2mph /  5.1km/h 7mph /  11.3km/h 89% 0.00in /  0mm 0 W/m2
23:09 40.3 °F /  4.6 °C 37.5 °F /  3.1 °C 30.17in /  1021.6hPa ESE 3.2mph /  5.1km/h 7mph /  11.3km/h 89.8% 0.00in /  0mm 0 W/m2
23:14 40.3 °F /  4.6 °C 37.6 °F /  3.1 °C 30.17in /  1021.6hPa ESE 5.4mph /  8.7km/h 9mph /  14.5km/h 90% 0.00in /  0mm 0 W/m2
23:19 40.3 °F /  4.6 °C 37.6 °F /  3.1 °C 30.17in /  1021.6hPa ESE 2.8mph /  4.5km/h 10mph /  16.1km/h 90% 0.00in /  0mm 0 W/m2
23:24 40.3 °F /  4.6 °C 37.6 °F /  3.1 °C 30.17in /  1021.6hPa ESE 1.7mph /  2.7km/h 5mph /  8km/h 90% 0.00in /  0mm 0 W/m2
23:29 40.3 °F /  4.6 °C 37.6 °F /  3.1 °C 30.17in /  1021.6hPa SE 2mph /  3.2km/h 5mph /  8km/h 90% 0.00in /  0mm 0 W/m2
23:34 40.4 °F /  4.7 °C 37.7 °F /  3.2 °C 30.17in /  1021.6hPa East 3.4mph /  5.5km/h 7mph /  11.3km/h 90% 0.00in /  0mm 0 W/m2
23:39 40.5 °F /  4.7 °C 37.8 °F /  3.2 °C 30.17in /  1021.6hPa SE 1.1mph /  1.8km/h 4mph /  6.4km/h 90% 0.00in /  0mm 0 W/m2
23:44 40.5 °F /  4.7 °C 37.8 °F /  3.2 °C 30.17in /  1021.6hPa East 3.1mph /  5km/h 5mph /  8km/h 90% 0.00in /  0mm 0 W/m2
23:49 40.5 °F /  4.7 °C 37.8 °F /  3.2 °C 30.16in /  1021.2hPa East 3.1mph /  5km/h 9mph /  14.5km/h 90% 0.00in /  0mm 0 W/m2
23:54 40.6 °F /  4.8 °C 37.9 °F /  3.3 °C 30.16in /  1021.2hPa East 2.8mph /  4.5km/h 8mph /  12.9km/h 90% 0.00in /  0mm 0 W/m2
23:59 40.6 °F /  4.8 °C 37.9 °F /  3.3 °C 30.16in /  1021.2hPa ESE 2.9mph /  4.7km/h 8mph /  12.9km/h 90% 0.00in /  0mm 0 W/m2
Bath Spa Weather
Compliments of Weather Underground - 2 mb